Time;durP1;ratioP1;P1;durP2;ratioP2;P2;SDS_P1;SDS_P2;PMS_P1;PMS_P2;Temp;Humidity;BMP_temperature;BMP_pressure;BME280_temperature;BME280_humidity;BME280_pressure;Samples;Min_cycle;Max_cycle;Signal;HPM_P1;HPM_P2
2021/09/08 00:00:20;;;;;;;26.98;15.65;;;15.50;99.90;;;;;;5003655;28;20029;-57
2021/09/08 00:02:46;;;;;;;28.05;15.82;;;15.50;99.90;;;;;;5011571;28;20025;-54
2021/09/08 00:05:11;;;;;;;25.30;16.00;;;15.40;99.90;;;;;;5011067;28;20065;-58
2021/09/08 00:07:38;;;;;;;26.90;15.07;;;15.40;99.90;;;;;;5008818;28;20030;-56
2021/09/08 00:10:07;;;;;;;26.48;15.77;;;15.40;99.90;;;;;;4991853;28;20029;-54
2021/09/08 00:12:33;;;;;;;27.77;14.70;;;15.40;99.90;;;;;;5012534;28;20025;-54
2021/09/08 00:14:58;;;;;;;28.90;15.88;;;15.40;99.90;;;;;;5015212;28;20474;-52
2021/09/08 00:17:24;;;;;;;24.63;14.65;;;15.40;99.90;;;;;;5013889;28;20393;-53
2021/09/08 00:19:49;;;;;;;24.65;15.13;;;15.40;99.90;;;;;;5014381;28;20088;-53
2021/09/08 00:22:15;;;;;;;28.48;15.65;;;15.40;99.90;;;;;;5014463;28;20033;-58
2021/09/08 00:24:41;;;;;;;26.05;15.27;;;15.40;99.90;;;;;;5007751;28;20145;-57
2021/09/08 00:27:07;;;;;;;25.77;15.32;;;15.30;99.90;;;;;;5016848;28;20040;-57
2021/09/08 00:29:35;;;;;;;24.10;15.57;;;15.30;99.90;;;;;;5012914;28;20029;-53
2021/09/08 00:34:36;;;;;;;21.83;14.57;;;15.20;99.90;;;;;;5227452;23;20053;-60
2021/09/08 00:37:02;;;;;;;26.70;15.80;;;15.20;99.90;;;;;;4991148;28;20034;-64
2021/09/08 00:39:28;;;;;;;30.67;16.02;;;15.10;99.90;;;;;;4972265;28;20559;-62
2021/09/08 00:41:53;;;;;;;28.23;16.17;;;15.10;99.90;;;;;;4996976;28;20030;-61
2021/09/08 00:44:19;;;;;;;25.88;15.80;;;15.00;99.90;;;;;;4991200;28;20030;-61
2021/09/08 00:46:45;;;;;;;25.73;15.15;;;15.00;99.90;;;;;;4991634;28;20034;-60
2021/09/08 00:49:11;;;;;;;23.33;14.73;;;15.00;99.90;;;;;;4990923;28;20049;-62
2021/09/08 00:51:38;;;;;;;27.98;14.20;;;15.10;99.90;;;;;;4991637;28;20033;-62
2021/09/08 00:54:13;;;;;;;23.33;14.23;;;15.10;99.90;;;;;;4993953;28;20081;-62
2021/09/08 00:56:41;;;;;;;24.63;14.43;;;15.20;99.90;;;;;;5011922;23;20140;-55
2021/09/08 00:59:06;;;;;;;24.42;15.18;;;15.30;99.90;;;;;;5014481;28;20416;-56
2021/09/08 01:01:32;;;;;;;28.70;15.00;;;15.30;99.90;;;;;;5012379;28;20045;-56
2021/09/08 01:03:57;;;;;;;28.88;15.57;;;15.20;99.90;;;;;;5008393;28;20037;-53
2021/09/08 01:06:23;;;;;;;25.92;15.65;;;15.20;99.90;;;;;;5019489;28;20029;-55
2021/09/08 01:08:49;;;;;;;29.58;16.23;;;15.10;99.90;;;;;;5032556;28;20037;-54
2021/09/08 01:11:15;;;;;;;26.75;15.57;;;15.10;99.90;;;;;;5029611;28;20025;-56
2021/09/08 01:13:40;;;;;;;25.40;14.63;;;15.00;99.90;;;;;;5030142;28;20620;-52
2021/09/08 01:16:06;;;;;;;24.23;14.48;;;14.90;99.90;;;;;;5032426;28;20104;-52
2021/09/08 01:18:36;;;;;;;26.25;14.88;;;14.80;99.90;;;;;;5029631;28;20485;-54
2021/09/08 01:21:03;;;;;;;31.77;16.08;;;14.80;99.90;;;;;;5032215;28;20175;-56
2021/09/08 01:23:29;;;;;;;29.90;16.40;;;14.80;99.90;;;;;;5032628;28;20026;-56
2021/09/08 01:25:55;;;;;;;35.80;16.73;;;14.80;99.90;;;;;;5030039;28;20033;-58
2021/09/08 01:28:21;;;;;;;28.10;16.02;;;14.80;99.90;;;;;;5028380;28;20026;-59
2021/09/08 01:30:52;;;;;;;27.70;16.20;;;14.80;99.90;;;;;;5028387;28;20032;-55
2021/09/08 01:33:18;;;;;;;25.95;15.43;;;14.80;99.90;;;;;;5029591;28;20026;-55
2021/09/08 01:35:43;;;;;;;31.08;15.95;;;14.80;99.90;;;;;;5030516;28;20100;-57
2021/09/08 01:38:09;;;;;;;28.45;16.05;;;14.70;99.90;;;;;;5028153;28;20456;-55
2021/09/08 01:40:34;;;;;;;28.40;16.90;;;14.70;99.90;;;;;;5026511;28;20598;-58
2021/09/08 01:43:00;;;;;;;28.17;17.20;;;14.70;99.90;;;;;;5031037;28;20033;-56
2021/09/08 01:45:26;;;;;;;30.05;16.55;;;14.70;99.90;;;;;;5030132;28;20025;-52
2021/09/08 01:47:56;;;;;;;32.25;17.73;;;14.70;99.90;;;;;;5031453;28;20041;-52
2021/09/08 01:50:23;;;;;;;28.95;17.40;;;14.70;99.90;;;;;;5030916;28;20485;-58
2021/09/08 01:52:50;;;;;;;31.23;16.70;;;14.70;99.90;;;;;;5024820;28;20037;-56
2021/09/08 01:55:16;;;;;;;33.40;16.45;;;14.70;99.90;;;;;;5029656;28;20030;-50
2021/09/08 01:57:42;;;;;;;33.28;16.95;;;14.70;99.90;;;;;;5029543;28;20025;-55
2021/09/08 02:00:10;;;;;;;31.02;17.45;;;14.60;99.90;;;;;;5030267;28;20139;-54
2021/09/08 02:02:35;;;;;;;32.03;16.33;;;14.60;99.90;;;;;;5030859;28;20048;-52
2021/09/08 02:05:01;;;;;;;32.38;16.45;;;14.60;99.90;;;;;;5031922;28;20034;-53
2021/09/08 02:07:27;;;;;;;34.45;17.38;;;14.70;99.90;;;;;;5028681;28;20035;-57
2021/09/08 02:09:52;;;;;;;31.67;16.95;;;14.60;99.90;;;;;;5026549;28;20143;-55
2021/09/08 02:12:18;;;;;;;28.52;16.98;;;14.60;99.90;;;;;;5031590;28;20083;-52
2021/09/08 02:14:43;;;;;;;28.38;17.63;;;14.60;99.90;;;;;;5031806;28;20135;-55
2021/09/08 02:17:10;;;;;;;28.42;16.30;;;14.60;99.90;;;;;;5030258;28;20053;-53
2021/09/08 02:19:36;;;;;;;27.67;17.40;;;14.50;99.90;;;;;;5032059;28;20140;-55
2021/09/08 02:22:01;;;;;;;28.52;16.35;;;14.50;99.90;;;;;;5029992;28;20064;-54
2021/09/08 02:24:27;;;;;;;27.83;17.25;;;14.50;99.90;;;;;;5030518;28;20056;-56
2021/09/08 02:26:52;;;;;;;29.02;17.50;;;14.40;99.90;;;;;;5030686;28;20183;-53
2021/09/08 02:29:18;;;;;;;33.92;17.08;;;14.40;99.90;;;;;;5029682;28;20041;-53
2021/09/08 02:31:44;;;;;;;30.50;17.15;;;14.40;99.90;;;;;;5029588;28;20488;-52
2021/09/08 02:34:09;;;;;;;32.58;17.38;;;14.30;99.90;;;;;;5029187;28;20029;-59
2021/09/08 02:36:35;;;;;;;30.70;17.42;;;14.30;99.90;;;;;;5030677;28;20056;-55
2021/09/08 02:39:01;;;;;;;27.95;16.63;;;14.30;99.90;;;;;;5029154;28;20093;-55
2021/09/08 02:41:26;;;;;;;31.83;17.98;;;14.30;99.90;;;;;;5029965;28;20474;-54
2021/09/08 02:43:52;;;;;;;33.10;17.80;;;14.20;99.90;;;;;;5031392;28;20083;-53
2021/09/08 02:46:18;;;;;;;33.42;18.05;;;14.20;99.90;;;;;;5029213;28;20100;-56
2021/09/08 02:48:44;;;;;;;29.70;18.02;;;14.20;99.90;;;;;;5028756;28;20045;-55
2021/09/08 02:51:09;;;;;;;36.83;18.50;;;14.10;99.90;;;;;;5026981;28;20059;-55
2021/09/08 02:53:35;;;;;;;34.70;18.42;;;14.10;99.90;;;;;;5028977;28;20423;-56
2021/09/08 02:56:01;;;;;;;32.90;18.13;;;14.10;99.90;;;;;;5026178;28;20033;-58
2021/09/08 02:58:27;;;;;;;32.15;17.35;;;14.10;99.90;;;;;;5026292;28;20025;-56
2021/09/08 03:00:53;;;;;;;33.75;18.35;;;14.10;99.90;;;;;;5021796;28;20116;-60
2021/09/08 03:03:19;;;;;;;34.05;18.20;;;14.10;99.90;;;;;;5022146;28;20112;-56
2021/09/08 03:05:45;;;;;;;33.53;18.13;;;14.10;99.90;;;;;;5030635;28;20451;-57
2021/09/08 03:08:11;;;;;;;31.48;18.40;;;14.20;99.90;;;;;;5030265;28;20485;-56
2021/09/08 03:10:37;;;;;;;28.67;16.85;;;14.20;99.90;;;;;;5028498;28;20040;-55
2021/09/08 03:13:03;;;;;;;29.85;17.48;;;14.20;99.90;;;;;;5030678;28;20657;-56
2021/09/08 03:15:29;;;;;;;29.45;16.67;;;14.30;99.90;;;;;;5029291;28;20033;-54
2021/09/08 03:17:54;;;;;;;28.00;16.75;;;14.30;99.90;;;;;;5029695;28;20586;-53
2021/09/08 03:20:20;;;;;;;31.65;16.92;;;14.30;99.90;;;;;;5029512;28;20041;-55
2021/09/08 03:22:46;;;;;;;30.52;17.58;;;14.30;99.90;;;;;;5030860;28;20388;-54
2021/09/08 03:25:12;;;;;;;37.15;18.50;;;14.30;99.90;;;;;;5027780;28;20029;-56
2021/09/08 03:27:37;;;;;;;33.40;17.52;;;14.20;99.90;;;;;;5028000;28;20031;-58
2021/09/08 03:30:04;;;;;;;27.73;17.98;;;14.10;99.90;;;;;;5027090;28;20116;-56
2021/09/08 03:32:29;;;;;;;31.83;17.65;;;14.10;99.90;;;;;;5026463;28;20028;-56
2021/09/08 03:34:55;;;;;;;27.55;16.70;;;14.10;99.90;;;;;;5028769;28;20025;-54
2021/09/08 03:37:20;;;;;;;30.73;17.88;;;14.10;99.90;;;;;;5026849;28;20199;-55
2021/09/08 03:39:46;;;;;;;33.03;17.05;;;14.10;99.90;;;;;;5026228;28;20031;-53
2021/09/08 03:42:11;;;;;;;37.38;17.92;;;14.00;99.90;;;;;;5029816;28;20428;-55
2021/09/08 03:44:37;;;;;;;31.67;18.67;;;14.00;99.90;;;;;;5032058;28;20481;-56
2021/09/08 03:47:02;;;;;;;30.83;17.90;;;14.00;99.90;;;;;;5033275;28;20076;-52
2021/09/08 03:49:28;;;;;;;30.88;17.88;;;13.90;99.90;;;;;;5032957;28;20116;-54
2021/09/08 03:51:54;;;;;;;30.05;17.75;;;13.90;99.90;;;;;;5033822;28;20472;-57
2021/09/08 03:54:20;;;;;;;37.83;18.42;;;13.90;99.90;;;;;;5032442;28;20524;-52
2021/09/08 03:56:46;;;;;;;40.10;17.83;;;13.90;99.90;;;;;;5032679;28;20121;-54
2021/09/08 03:59:11;;;;;;;34.83;17.65;;;13.80;99.90;;;;;;5031950;28;20045;-58
2021/09/08 04:01:37;;;;;;;33.30;18.85;;;13.90;99.90;;;;;;5033204;28;20033;-52
2021/09/08 04:04:02;;;;;;;33.90;17.42;;;13.80;99.90;;;;;;5032168;28;20033;-52
2021/09/08 04:06:28;;;;;;;31.20;18.60;;;13.90;99.90;;;;;;5033765;28;20029;-56
2021/09/08 04:08:53;;;;;;;30.92;17.77;;;13.80;99.90;;;;;;5031445;28;20033;-56
2021/09/08 04:11:19;;;;;;;36.17;18.20;;;13.80;99.90;;;;;;5033741;28;20159;-55
2021/09/08 04:13:45;;;;;;;32.55;16.77;;;13.80;99.90;;;;;;5033498;28;20112;-52
2021/09/08 04:16:10;;;;;;;35.70;17.25;;;13.80;99.90;;;;;;5032667;28;20115;-55
2021/09/08 04:18:36;;;;;;;26.33;16.42;;;13.80;99.90;;;;;;5031761;28;20052;-52
2021/09/08 04:21:01;;;;;;;32.10;18.23;;;13.80;99.90;;;;;;5029151;28;20032;-56
2021/09/08 04:23:27;;;;;;;35.53;17.90;;;13.80;99.90;;;;;;5029709;28;20038;-58
2021/09/08 04:25:52;;;;;;;34.35;19.20;;;13.80;99.90;;;;;;5030162;28;20053;-54
2021/09/08 04:28:18;;;;;;;29.25;17.80;;;13.80;99.90;;;;;;5030002;28;20037;-58
2021/09/08 04:30:43;;;;;;;31.08;16.83;;;13.70;99.90;;;;;;5032946;28;20400;-55
2021/09/08 04:33:09;;;;;;;35.40;17.80;;;13.70;99.90;;;;;;5032185;28;20469;-57
2021/09/08 04:35:34;;;;;;;30.48;18.70;;;13.70;99.90;;;;;;5033180;28;20412;-56
2021/09/08 04:38:00;;;;;;;32.78;18.90;;;13.60;99.90;;;;;;5030975;28;20084;-57
2021/09/08 04:40:26;;;;;;;35.53;17.27;;;13.70;99.90;;;;;;5032361;28;20502;-56
2021/09/08 04:42:51;;;;;;;32.78;19.63;;;13.60;99.90;;;;;;5025793;28;20112;-57
2021/09/08 04:45:17;;;;;;;32.53;17.98;;;13.60;99.90;;;;;;5031262;28;20036;-53
2021/09/08 04:47:42;;;;;;;33.65;19.40;;;13.60;99.90;;;;;;5031856;28;20444;-53
2021/09/08 04:50:08;;;;;;;31.75;19.73;;;13.60;99.90;;;;;;5028617;28;20112;-55
2021/09/08 04:52:35;;;;;;;35.10;18.75;;;13.60;99.90;;;;;;5031404;28;20188;-57
2021/09/08 04:55:02;;;;;;;31.10;18.80;;;13.70;99.90;;;;;;5032615;28;20044;-53
2021/09/08 04:57:27;;;;;;;37.30;19.65;;;13.70;99.90;;;;;;5032399;28;20033;-52
2021/09/08 04:59:53;;;;;;;32.40;18.13;;;13.70;99.90;;;;;;5030674;28;20056;-54
2021/09/08 05:02:18;;;;;;;32.72;18.60;;;13.70;99.90;;;;;;5028460;28;20030;-57
2021/09/08 05:04:44;;;;;;;34.03;18.70;;;13.60;99.90;;;;;;5030172;28;20076;-55
2021/09/08 05:07:10;;;;;;;32.42;17.35;;;13.50;99.90;;;;;;5032855;28;20029;-51
2021/09/08 05:09:36;;;;;;;34.40;18.90;;;13.50;99.90;;;;;;5029777;28;20033;-52
2021/09/08 05:12:01;;;;;;;29.33;17.95;;;13.50;99.90;;;;;;5030242;28;20037;-55
2021/09/08 05:14:27;;;;;;;35.30;19.27;;;13.50;99.90;;;;;;5031035;28;20025;-58
2021/09/08 05:16:52;;;;;;;34.63;18.88;;;13.50;99.90;;;;;;5028906;28;20061;-53
2021/09/08 05:19:18;;;;;;;33.35;17.98;;;13.50;99.90;;;;;;5029453;28;20095;-54
2021/09/08 05:21:44;;;;;;;33.00;17.95;;;13.50;99.90;;;;;;5026545;28;20049;-53
2021/09/08 05:24:09;;;;;;;35.55;17.65;;;13.50;99.90;;;;;;5027485;28;20037;-57
2021/09/08 05:26:35;;;;;;;35.40;18.40;;;13.50;99.90;;;;;;5030212;28;20033;-55
2021/09/08 05:29:01;;;;;;;27.77;17.38;;;13.50;99.90;;;;;;5029183;28;20029;-56
2021/09/08 05:31:26;;;;;;;32.40;18.60;;;13.50;99.90;;;;;;5030681;28;20026;-56
2021/09/08 05:33:52;;;;;;;32.75;17.92;;;13.60;99.90;;;;;;5019147;28;20034;-57
2021/09/08 05:36:17;;;;;;;38.92;17.67;;;13.70;99.90;;;;;;5028284;28;20072;-55
2021/09/08 05:38:44;;;;;;;40.03;19.70;;;13.70;99.90;;;;;;5029315;28;20029;-58
2021/09/08 05:41:10;;;;;;;37.75;19.13;;;13.70;99.90;;;;;;5028195;28;20034;-58
2021/09/08 05:43:36;;;;;;;31.70;19.13;;;13.80;99.90;;;;;;5026339;28;20044;-57
2021/09/08 05:46:02;;;;;;;32.80;18.30;;;13.90;99.90;;;;;;5025804;28;20037;-55
2021/09/08 05:48:28;;;;;;;34.88;19.15;;;13.90;99.90;;;;;;5017814;28;20022;-57
2021/09/08 05:50:54;;;;;;;32.25;18.23;;;14.00;99.90;;;;;;5029541;28;20025;-54
2021/09/08 05:53:19;;;;;;;30.88;17.27;;;14.10;99.90;;;;;;5026298;28;20148;-54
2021/09/08 05:55:45;;;;;;;30.27;17.42;;;14.20;99.90;;;;;;5025188;28;20029;-58
2021/09/08 05:58:11;;;;;;;27.35;16.63;;;14.20;99.90;;;;;;5028961;28;20463;-58
2021/09/08 06:00:36;;;;;;;36.92;18.45;;;14.30;99.90;;;;;;5028112;28;20021;-55
2021/09/08 06:03:02;;;;;;;33.42;18.80;;;14.30;99.90;;;;;;5028869;28;20417;-57
2021/09/08 06:05:27;;;;;;;30.52;16.92;;;14.40;99.90;;;;;;5028975;28;20129;-57
2021/09/08 06:07:53;;;;;;;28.55;17.83;;;14.40;99.90;;;;;;5025180;28;20530;-56
2021/09/08 06:10:20;;;;;;;30.60;17.58;;;14.50;99.90;;;;;;5021002;28;20103;-56
2021/09/08 06:12:47;;;;;;;33.00;17.83;;;14.60;99.90;;;;;;5028228;28;20029;-54
2021/09/08 06:15:13;;;;;;;45.30;16.67;;;14.60;99.90;;;;;;5028441;28;20464;-57
2021/09/08 06:17:39;;;;;;;36.33;19.40;;;14.70;99.90;;;;;;5027494;28;20033;-56
2021/09/08 06:20:06;;;;;;;27.77;17.00;;;14.80;99.90;;;;;;5029924;28;20065;-57
2021/09/08 06:22:32;;;;;;;30.58;17.38;;;14.80;99.90;;;;;;5025609;28;20044;-55
2021/09/08 06:24:57;;;;;;;33.55;18.50;;;14.90;99.90;;;;;;5028386;28;20021;-55
2021/09/08 06:27:23;;;;;;;35.55;17.63;;;14.90;99.90;;;;;;5031275;28;20052;-55
2021/09/08 06:29:48;;;;;;;30.42;18.23;;;15.00;99.90;;;;;;5023657;28;20021;-58
2021/09/08 06:32:14;;;;;;;28.17;17.27;;;15.00;99.90;;;;;;5028737;28;20026;-55
2021/09/08 06:34:44;;;;;;;32.83;17.77;;;15.10;99.90;;;;;;5031316;28;20056;-57
2021/09/08 06:37:10;;;;;;;29.90;17.13;;;15.20;99.90;;;;;;5031509;28;20392;-57
2021/09/08 06:39:35;;;;;;;28.75;17.40;;;15.30;99.90;;;;;;5030961;28;20029;-58
2021/09/08 06:42:01;;;;;;;25.52;16.13;;;15.40;99.90;;;;;;5030398;28;20037;-59
2021/09/08 06:44:26;;;;;;;28.63;16.80;;;15.40;99.90;;;;;;5029373;28;20040;-58
2021/09/08 06:46:52;;;;;;;27.77;16.65;;;15.50;99.90;;;;;;5025320;28;20037;-56
2021/09/08 06:49:19;;;;;;;31.02;18.08;;;15.60;99.90;;;;;;5030819;28;20365;-57
2021/09/08 06:51:44;;;;;;;27.13;16.15;;;15.70;99.90;;;;;;5023275;28;20070;-58
2021/09/08 06:54:10;;;;;;;32.03;16.23;;;15.80;99.90;;;;;;5026414;28;20021;-54
2021/09/08 06:56:35;;;;;;;27.58;16.25;;;15.80;99.90;;;;;;5050274;23;20128;-62
2021/09/08 06:59:01;;;;;;;39.00;17.42;;;16.00;99.90;;;;;;5009915;28;20039;-58
2021/09/08 07:01:27;;;;;;;29.88;17.80;;;16.00;99.90;;;;;;5005750;28;20018;-59
2021/09/08 07:03:52;;;;;;;33.15;17.23;;;16.10;99.90;;;;;;5009734;28;20018;-62
2021/09/08 07:06:20;;;;;;;34.13;17.02;;;16.20;99.90;;;;;;5012963;28;20470;-58
2021/09/08 07:08:46;;;;;;;29.75;16.90;;;16.30;99.90;;;;;;5006458;28;20109;-60
2021/09/08 07:11:11;;;;;;;30.85;16.65;;;16.40;99.90;;;;;;5001729;28;20719;-60
2021/09/08 07:13:37;;;;;;;34.22;17.20;;;16.50;99.90;;;;;;5002743;28;20048;-56
2021/09/08 07:16:03;;;;;;;29.15;16.48;;;16.60;99.90;;;;;;4999940;28;20413;-59
2021/09/08 07:18:28;;;;;;;35.92;18.05;;;16.60;99.90;;;;;;5001292;28;20027;-55
2021/09/08 07:20:54;;;;;;;27.17;16.50;;;16.70;99.90;;;;;;5000420;28;20034;-57
2021/09/08 07:23:19;;;;;;;31.90;15.73;;;16.70;99.90;;;;;;5002795;28;20026;-58
2021/09/08 07:25:45;;;;;;;32.47;17.02;;;16.80;99.90;;;;;;5006348;28;20434;-62
2021/09/08 07:28:10;;;;;;;32.85;15.60;;;16.90;99.90;;;;;;5003444;28;20705;-59
2021/09/08 07:30:37;;;;;;;31.08;15.52;;;16.90;99.90;;;;;;5011541;28;20551;-57
2021/09/08 07:33:02;;;;;;;30.27;16.25;;;17.00;99.90;;;;;;5011371;28;20393;-57
2021/09/08 07:35:28;;;;;;;30.55;16.27;;;17.00;99.90;;;;;;5011631;28;20474;-59
2021/09/08 07:37:54;;;;;;;26.52;15.02;;;17.10;99.90;;;;;;5011391;28;20028;-62
2021/09/08 07:40:20;;;;;;;35.83;17.05;;;17.20;99.90;;;;;;5001026;28;20026;-59
2021/09/08 07:42:46;;;;;;;28.52;15.82;;;17.30;99.90;;;;;;5010130;28;20040;-60
2021/09/08 07:45:11;;;;;;;29.15;15.93;;;17.30;99.90;;;;;;5011422;28;20109;-60
2021/09/08 07:47:37;;;;;;;26.65;15.65;;;17.40;99.90;;;;;;5008162;28;20034;-58
2021/09/08 07:50:03;;;;;;;33.05;15.70;;;17.50;99.90;;;;;;5011202;28;20133;-62
2021/09/08 07:52:29;;;;;;;24.88;15.57;;;17.60;99.90;;;;;;5011001;28;20022;-56
2021/09/08 07:54:55;;;;;;;23.67;14.93;;;17.70;99.90;;;;;;5011642;28;20030;-61
2021/09/08 07:57:20;;;;;;;26.75;15.52;;;17.80;99.90;;;;;;5020489;28;20612;-59
2021/09/08 07:59:46;;;;;;;33.90;15.57;;;17.90;99.90;;;;;;5050855;28;20037;-58
2021/09/08 08:02:11;;;;;;;29.40;14.60;;;18.00;99.90;;;;;;5050947;28;20419;-60
2021/09/08 08:04:37;;;;;;;25.98;15.18;;;18.10;99.90;;;;;;5049991;28;20052;-59
2021/09/08 08:07:03;;;;;;;25.88;14.80;;;18.20;99.90;;;;;;5049825;28;20017;-60
2021/09/08 08:09:28;;;;;;;21.38;13.77;;;18.20;99.90;;;;;;5050661;28;20037;-59
2021/09/08 08:11:54;;;;;;;27.27;15.52;;;18.30;99.90;;;;;;5050039;28;20487;-61
2021/09/08 08:14:19;;;;;;;30.75;14.90;;;18.40;99.90;;;;;;5050550;28;20112;-62
2021/09/08 08:16:45;;;;;;;24.38;14.48;;;18.50;99.90;;;;;;5050985;28;20048;-60
2021/09/08 08:19:10;;;;;;;27.40;15.18;;;18.60;99.90;;;;;;5050811;28;20025;-61
2021/09/08 08:21:36;;;;;;;26.75;16.40;;;18.70;99.90;;;;;;5050057;28;20032;-62
2021/09/08 08:24:02;;;;;;;22.27;14.13;;;18.80;99.90;;;;;;5050333;28;20033;-60
2021/09/08 08:26:28;;;;;;;26.55;15.50;;;18.80;99.90;;;;;;5050178;28;20033;-60
2021/09/08 08:28:53;;;;;;;32.25;15.43;;;18.90;99.90;;;;;;5043952;28;20111;-58
2021/09/08 08:31:19;;;;;;;24.05;14.88;;;19.00;99.90;;;;;;5039552;28;20072;-60
2021/09/08 08:33:46;;;;;;;25.77;15.02;;;19.10;99.90;;;;;;5053828;28;20041;-59
2021/09/08 08:36:12;;;;;;;24.17;14.63;;;19.20;99.90;;;;;;5053424;28;20033;-55
2021/09/08 08:38:40;;;;;;;23.42;15.65;;;19.30;99.90;;;;;;5053836;28;20063;-57
2021/09/08 08:41:06;;;;;;;21.60;13.45;;;19.40;99.90;;;;;;5049384;28;20467;-57
2021/09/08 08:43:32;;;;;;;25.38;15.10;;;19.50;99.90;;;;;;5050539;28;20052;-59
2021/09/08 08:45:59;;;;;;;23.92;14.30;;;19.60;99.90;;;;;;5050501;28;20086;-59
2021/09/08 08:48:25;;;;;;;29.13;15.85;;;19.70;99.90;;;;;;5049632;28;20021;-60
2021/09/08 08:50:51;;;;;;;23.27;14.25;;;19.80;99.90;;;;;;5051687;28;20030;-57
2021/09/08 08:53:17;;;;;;;26.20;15.43;;;19.90;99.90;;;;;;5048626;28;20476;-57
2021/09/08 08:55:42;;;;;;;30.27;13.77;;;20.00;99.90;;;;;;5051949;28;20029;-59
2021/09/08 08:58:08;;;;;;;25.73;14.15;;;20.20;99.90;;;;;;5052265;28;20029;-61
2021/09/08 09:00:34;;;;;;;28.55;14.18;;;20.20;99.90;;;;;;5053363;28;20033;-62
2021/09/08 09:03:00;;;;;;;21.05;14.32;;;20.40;99.90;;;;;;5053419;28;20420;-60
2021/09/08 09:05:37;;;;;;;23.42;13.88;;;20.50;99.90;;;;;;5053638;28;20090;-58
2021/09/08 09:08:08;;;;;;;29.48;14.52;;;20.60;99.90;;;;;;5048087;28;20021;-59
2021/09/08 09:10:38;;;;;;;25.42;14.40;;;20.70;99.90;;;;;;5053023;28;20025;-59
2021/09/08 09:13:04;;;;;;;18.75;12.05;;;20.80;99.90;;;;;;5049653;28;20029;-60
2021/09/08 09:15:31;;;;;;;24.85;14.65;;;21.00;99.90;;;;;;5053410;28;20024;-55
2021/09/08 09:17:57;;;;;;;23.85;14.52;;;21.10;99.90;;;;;;5053222;28;20436;-59
2021/09/08 09:20:29;;;;;;;23.23;13.88;;;21.20;99.90;;;;;;5053505;28;20120;-57
2021/09/08 09:22:58;;;;;;;22.00;13.35;;;21.30;99.90;;;;;;5053572;28;20045;-55
2021/09/08 09:25:26;;;;;;;22.52;13.63;;;21.50;99.90;;;;;;5046748;28;20040;-60
2021/09/08 09:27:55;;;;;;;24.30;13.18;;;21.60;99.90;;;;;;5052436;28;20025;-58
2021/09/08 09:30:24;;;;;;;22.20;13.57;;;21.80;99.90;;;;;;5053219;28;20056;-61
2021/09/08 09:32:52;;;;;;;22.60;13.25;;;21.90;99.90;;;;;;5052935;28;20021;-60
2021/09/08 09:35:28;;;;;;;23.15;13.73;;;22.00;99.90;;;;;;5053448;28;20021;-60
2021/09/08 09:37:57;;;;;;;25.58;13.15;;;22.10;99.90;;;;;;5053550;28;20478;-60
2021/09/08 09:40:30;;;;;;;21.55;14.27;;;22.30;99.90;;;;;;5053009;28;20116;-60
2021/09/08 09:43:01;;;;;;;19.98;12.60;;;22.40;99.90;;;;;;5050605;28;20033;-59
2021/09/08 09:45:33;;;;;;;20.23;13.27;;;22.50;99.90;;;;;;5052539;28;20033;-60
2021/09/08 09:48:01;;;;;;;23.67;12.85;;;22.60;99.90;;;;;;5052577;28;20029;-58
2021/09/08 09:50:26;;;;;;;21.77;14.02;;;22.70;99.90;;;;;;5052688;28;20247;-61
2021/09/08 09:52:52;;;;;;;20.48;13.23;;;22.90;99.90;;;;;;5052468;28;20108;-61
2021/09/08 09:55:20;;;;;;;20.70;13.70;;;23.00;99.90;;;;;;5052834;28;20025;-60
2021/09/08 09:57:46;;;;;;;21.55;12.77;;;23.10;99.90;;;;;;5045517;28;20043;-58
2021/09/08 10:00:14;;;;;;;21.77;13.27;;;23.40;99.90;;;;;;5052627;28;20025;-58
2021/09/08 10:02:40;;;;;;;23.52;11.55;;;23.60;99.90;;;;;;5052322;28;20071;-60
2021/09/08 10:05:07;;;;;;;20.85;13.25;;;23.80;99.90;;;;;;5052514;28;20053;-60
2021/09/08 10:07:35;;;;;;;22.90;12.55;;;24.00;99.90;;;;;;5052452;28;20031;-59
2021/09/08 10:10:22;;;;;;;22.98;12.70;;;24.10;99.90;;;;;;5039121;28;20219;-60
2021/09/08 10:13:01;;;;;;;21.55;12.55;;;24.30;99.90;;;;;;5048849;28;20025;-60
2021/09/08 10:15:27;;;;;;;19.45;12.60;;;24.40;99.90;;;;;;5049059;28;20115;-58
2021/09/08 10:18:04;;;;;;;18.48;13.23;;;24.60;99.90;;;;;;5052090;28;20028;-61
2021/09/08 10:20:29;;;;;;;18.85;11.65;;;24.80;99.90;;;;;;5052118;28;20032;-61
2021/09/08 10:22:55;;;;;;;18.85;12.77;;;25.00;99.90;;;;;;5051742;28;20942;-58
2021/09/08 10:25:22;;;;;;;18.17;12.55;;;25.10;99.90;;;;;;5052012;28;20115;-58
2021/09/08 10:27:55;;;;;;;22.00;12.35;;;25.20;99.90;;;;;;5043312;28;20157;-60
2021/09/08 10:30:24;;;;;;;28.75;12.70;;;25.40;99.90;;;;;;5052099;28;20084;-59
2021/09/08 10:32:54;;;;;;;30.58;12.55;;;25.60;99.90;;;;;;5051746;28;20020;-61
2021/09/08 10:35:21;;;;;;;19.02;12.57;;;25.70;99.90;;;;;;5052023;28;20032;-59
2021/09/08 10:37:52;;;;;;;21.42;12.48;;;25.80;99.90;;;;;;5051987;28;20061;-60
2021/09/08 10:40:23;;;;;;;18.83;12.60;;;26.00;99.90;;;;;;5051118;28;20396;-61
2021/09/08 10:42:53;;;;;;;17.70;12.80;;;26.00;99.90;;;;;;5044537;28;20103;-60
2021/09/08 10:45:21;;;;;;;21.60;13.07;;;26.10;99.90;;;;;;5046069;28;20032;-61
2021/09/08 10:47:48;;;;;;;16.88;12.23;;;26.20;99.90;;;;;;5051679;28;20524;-61
2021/09/08 10:50:13;;;;;;;20.50;12.00;;;26.30;99.90;;;;;;5051724;28;20036;-61
2021/09/08 10:52:44;;;;;;;23.45;12.88;;;26.40;99.90;;;;;;5049251;28;20021;-61
2021/09/08 10:55:12;;;;;;;23.02;13.40;;;26.40;99.90;;;;;;5051174;28;20051;-59
2021/09/08 10:57:41;;;;;;;16.17;11.90;;;26.50;99.90;;;;;;5049851;28;20120;-60
2021/09/08 11:00:14;;;;;;;16.35;12.27;;;26.50;99.90;;;;;;5051479;28;20060;-61
2021/09/08 11:02:44;;;;;;;18.35;11.90;;;26.50;99.90;;;;;;5051558;28;20043;-61
2021/09/08 11:05:11;;;;;;;16.50;12.00;;;26.40;99.90;;;;;;5050717;28;20033;-61
2021/09/08 11:07:44;;;;;;;19.10;12.48;;;26.40;99.90;;;;;;5049542;28;20508;-57
2021/09/08 11:10:12;;;;;;;16.75;11.38;;;26.50;99.90;;;;;;5047036;28;20032;-57
2021/09/08 11:13:02;;;;;;;22.35;12.30;;;26.60;99.90;;;;;;5046432;28;20040;-60
2021/09/08 11:15:39;;;;;;;16.60;11.63;;;26.60;99.90;;;;;;5051477;28;20377;-62
2021/09/08 11:18:11;;;;;;;18.30;12.40;;;26.80;99.90;;;;;;5051171;28;20028;-59
2021/09/08 11:20:38;;;;;;;18.23;12.73;;;26.80;99.90;;;;;;5051426;28;20075;-59
2021/09/08 11:23:08;;;;;;;23.63;12.45;;;27.00;99.90;;;;;;5050162;28;20029;-59
2021/09/08 11:25:36;;;;;;;17.58;12.02;;;27.00;99.90;;;;;;5049543;28;20485;-61
2021/09/08 11:28:03;;;;;;;14.68;11.65;;;26.90;99.90;;;;;;5048822;28;20048;-60
2021/09/08 11:30:31;;;;;;;17.85;11.23;;;27.10;99.90;;;;;;5051323;28;20112;-61
2021/09/08 11:33:00;;;;;;;19.35;12.25;;;27.10;99.90;;;;;;5051030;28;20021;-61
2021/09/08 11:35:44;;;;;;;16.65;12.05;;;27.20;99.90;;;;;;5051087;28;20108;-61
2021/09/08 11:38:12;;;;;;;;;;;27.30;99.90;;;;;;5045484;28;20450;-60
2021/09/08 11:40:50;;;;;;;15.98;11.90;;;27.30;99.90;;;;;;5051102;28;19904;-56
2021/09/08 11:43:40;;;;;;;18.50;11.55;;;27.40;99.90;;;;;;5040281;28;20041;-61
2021/09/08 11:46:16;;;;;;;15.95;12.15;;;27.60;99.90;;;;;;5045785;28;20031;-61
2021/09/08 11:48:42;;;;;;;17.73;11.82;;;27.60;99.90;;;;;;5044293;28;20055;-60
2021/09/08 11:51:10;;;;;;;17.85;11.85;;;27.80;99.90;;;;;;5045194;28;20488;-61
2021/09/08 11:53:35;;;;;;;21.00;12.45;;;27.80;99.90;;;;;;5043588;28;20484;-57
2021/09/08 11:56:10;;;;;;;20.20;12.93;;;27.90;99.90;;;;;;5042138;28;20029;-61
2021/09/08 11:58:35;;;;;;;19.08;12.15;;;27.90;99.90;;;;;;5048803;28;20098;-61
2021/09/08 12:01:08;;;;;;;17.45;11.43;;;27.60;99.90;;;;;;5045875;28;20034;-60
2021/09/08 12:03:41;;;;;;;21.17;11.88;;;27.70;99.90;;;;;;5045541;28;20025;-59
2021/09/08 12:06:11;;;;;;;21.65;12.18;;;27.70;99.90;;;;;;5040718;28;20055;-59
2021/09/08 12:08:37;;;;;;;16.88;11.68;;;28.00;99.90;;;;;;5045530;28;20037;-59
2021/09/08 12:11:04;;;;;;;16.60;10.98;;;28.00;99.90;;;;;;5053020;28;20087;-59
2021/09/08 12:13:33;;;;;;;18.10;10.73;;;27.70;99.90;;;;;;5048950;28;20431;-59
2021/09/08 12:15:59;;;;;;;19.45;11.02;;;27.50;99.90;;;;;;5053183;28;20036;-59
2021/09/08 12:18:25;;;;;;;15.35;10.77;;;27.50;99.90;;;;;;5051333;28;20041;-61
2021/09/08 12:20:51;;;;;;;15.82;10.20;;;27.70;99.90;;;;;;5053772;28;20674;-59
2021/09/08 12:23:32;;;;;;;15.25;11.15;;;27.80;99.90;;;;;;5053073;28;20708;-59
2021/09/08 12:26:04;;;;;;;17.65;10.20;;;27.80;99.90;;;;;;5053626;28;20033;-61
2021/09/08 12:28:30;;;;;;;14.52;9.95;;;28.00;99.90;;;;;;5048999;28;20057;-61